Terminal Aerodrome Forecast
Issued by NWS

Home | Current Version | Previous Version | Text Only | Print | Product List | Glossary On
Versions: 1 2 3 4 5 6 7 8 9 10 11 12 13
000
FTUS42 KMLB 261738
TAFSUA
TAF
KSUA 261738Z 2618/2718 10012KT P6SM VCSH SCT025 BKN050
      TEMPO 2618/2622 SHRA BKN035
     FM270400 05007KT P6SM VCSH SCT040=

USA.gov is the U.S. government's official web portal to all federal, state and local government web resources and services.